หน้าหลัก
METAR-TAF:

METAR-TAF

ท่าอากาศยาน :

Rønne, เดนมาร์ก

ละติจูด: 55-04N, ลองจิจูด: 014-45E, ความสูง: 16 ม.

การสังเกตสภาพอากาศปัจจุบัน

รายงานได้ทำขึ้นเมื่อ 28 นาทีที่แล้ว ณ เวลา 02:20 UTC
ลม 6 นอตจากตะวันตก
อุณหภูมิ 17°C
ความชื้น 88%
ความกดอากาศ 1022 hPa
ทัศนวิสัย 10 กม. หรือมากกว่า

METAR: EKRN 190220Z AUTO 28006KT 9999 NCD 17/15 Q1022

เวลา: 04:48 (02:48 UTC)

การพยากรณ์

รายงานได้ทำขึ้นเมื่อ 38 นาทีที่แล้ว ณ เวลา 02:10 UTC
การพยากรณ์มีผลตั้งแต่วันที่ 19 ณ เวลา 03 UTC จนถึงวันที่ 19 ณ เวลา 12 UTC
ลม 8 นอตจากตะวันตก
ทัศนวิสัย 10 กม. หรือมากกว่า
มีเมฆน้อยที่ความสูง 20000 ฟุต

TAF: EKRN 190210Z 1903/1912 27008KT 9999 FEW200

สังเกตการณ์สภาพอากาศและพยากรณ์อากาศของสนามบินมากกว่า 4000 แห่ง (รายงาน METAR และ TAF).

สถานีที่ดูได้จะแสดงไว้ด้วยจุดสีเหลืองและสีแดงบนแผนที่.

เลื่อนเมาส์ไปเหนือจุดเพื่อดูชื่อสถานี.

แล้วคลิกเพื่อดูสังเกตการณ์และการพยากรณ์สภาพอากาศ.

ในการเปลี่ยนแผนที่: คลิกที่ปุ่มสีเขียวที่มีกากบาทสีดำเพื่อซูมเข้า; ที่ปุ่มสีเขียวที่มีขีดเพื่อซูมออก; หรือที่ลูกศรสีเขียวเพื่อไปยังแผนที่ที่อยู่ติดกัน.


METAR-TAF: